Terminal Aerodrome Forecast
Issued by NWS

Home | Current Version | Previous Version | Text Only | Print | Product List | Glossary On
Versions: 1 2 3 4 5 6 7 8 9 10 11 12 13 14 15 16 17 18 19 20 21 22 23 24 25 26 27 28 29 30 31 32 33 34 35 36 37 38 39 40 41 42 43 44 45 46 47
109
FTUS43 KDDC 251739
TAFGCK
TAF
KGCK 251739Z 2518/2618 01015KT 3SM BR OVC005
     FM252000 01011KT P6SM VCTS BKN007CB
     FM260400 01010KT 5SM BR VCSH BKN005
     FM260500 01011KT P6SM OVC003
     FM260600 01011KT P6SM OVC003
     FM261200 36010KT P6SM OVC008
     FM261600 36011KT P6SM BKN030=

USA.gov is the U.S. government's official web portal to all federal, state and local government web resources and services.